Time;durP1;ratioP1;P1;durP2;ratioP2;P2;SDS_P1;SDS_P2;PMS_P1;PMS_P2;Temp;Humidity;BMP_temperature;BMP_pressure;BME280_temperature;BME280_humidity;BME280_pressure;Samples;Min_cycle;Max_cycle;Signal;HPM_P1;HPM_P2
2022/12/15 00:40:28;;;;;;;27.70;16.20;;;-1.60;99.90;;;;;;5046762;28;20914;-39
2022/12/15 00:42:53;;;;;;;24.57;14.43;;;-1.80;99.90;;;;;;5046760;28;20428;-34
2022/12/15 00:45:19;;;;;;;25.20;15.10;;;-1.90;99.90;;;;;;5047557;28;20201;-38
2022/12/15 00:47:44;;;;;;;22.17;14.97;;;-1.80;99.90;;;;;;5046942;28;20657;-33
2022/12/15 01:20:20;;;;;;;22.67;15.30;;;-1.90;99.90;;;;;;5030427;28;20604;-35
2022/12/15 01:22:53;;;;;;;28.37;16.37;;;-1.80;99.90;;;;;;5029319;28;20392;-35
2022/12/15 01:25:22;;;;;;;24.77;15.87;;;-1.90;99.90;;;;;;5030851;28;20181;-36
2022/12/15 01:27:49;;;;;;;25.70;15.20;;;-1.90;99.90;;;;;;5050064;28;20507;-37
2022/12/15 01:30:17;;;;;;;28.83;15.73;;;-1.80;99.90;;;;;;5050271;28;20408;-35
2022/12/15 01:32:43;;;;;;;24.93;15.40;;;-1.70;99.90;;;;;;5050041;28;20488;-35
2022/12/15 01:35:09;;;;;;;23.53;14.80;;;-2.00;99.90;;;;;;5050619;28;20395;-33
2022/12/15 01:37:35;;;;;;;25.80;15.37;;;-2.00;99.90;;;;;;5050420;28;20586;-33
2022/12/15 01:42:45;;;;;;;26.10;14.70;;;-2.00;99.90;;;;;;5050232;28;20424;-35
2022/12/15 01:45:23;;;;;;;27.23;15.97;;;-1.90;99.90;;;;;;5050020;28;20532;-35
2022/12/15 01:47:55;;;;;;;25.17;15.30;;;-1.90;99.90;;;;;;5050322;28;20201;-34
2022/12/15 01:50:22;;;;;;;24.50;16.70;;;-1.70;99.90;;;;;;5049663;28;20788;-37
2022/12/15 01:52:49;;;;;;;26.07;16.83;;;-2.00;99.90;;;;;;5049959;28;20599;-37
2022/12/15 01:55:17;;;;;;;24.57;16.33;;;-1.90;99.90;;;;;;5050124;28;20416;-34
2022/12/15 01:57:43;;;;;;;24.93;15.63;;;-2.00;99.90;;;;;;5049963;28;20832;-33
2022/12/15 02:00:11;;;;;;;24.00;15.50;;;-2.00;99.90;;;;;;5048497;28;20772;-33
2022/12/15 02:02:38;;;;;;;23.33;15.47;;;-1.90;99.90;;;;;;5049830;28;20851;-36
2022/12/15 02:05:06;;;;;;;26.90;15.90;;;-1.80;99.90;;;;;;5049868;28;20443;-36
2022/12/15 02:07:32;;;;;;;25.73;15.40;;;-1.90;99.90;;;;;;5046918;28;20408;-33
2022/12/15 02:10:01;;;;;;;23.97;14.83;;;-1.80;99.90;;;;;;5047849;28;20773;-38
2022/12/15 02:12:56;;;;;;;30.70;16.30;;;-1.70;99.90;;;;;;5049400;28;20228;-34
2022/12/15 02:15:33;;;;;;;23.20;14.97;;;-1.80;99.90;;;;;;5049518;28;20447;-35
2022/12/15 02:18:20;;;;;;;22.03;15.53;;;-1.80;99.90;;;;;;5049826;28;20412;-35
2022/12/15 02:21:04;;;;;;;25.90;15.87;;;-1.70;99.90;;;;;;5049064;28;20891;-35
2022/12/15 02:24:06;;;;;;;24.70;14.60;;;-1.80;99.90;;;;;;5049809;28;20390;-35
2022/12/15 02:26:43;;;;;;;24.60;15.30;;;-2.00;99.90;;;;;;5049318;28;20460;-37
2022/12/15 02:29:26;;;;;;;24.10;15.43;;;-1.90;99.90;;;;;;5049142;28;20427;-37
2022/12/15 02:32:06;;;;;;;23.50;16.20;;;-2.00;99.90;;;;;;5049333;28;20434;-37
2022/12/15 02:34:46;;;;;;;21.47;14.50;;;-1.80;99.90;;;;;;5049222;28;20424;-34
2022/12/15 02:37:15;;;;;;;24.70;14.90;;;-1.80;99.90;;;;;;5047795;28;20398;-38
2022/12/15 02:39:41;;;;;;;25.87;14.67;;;-2.00;99.90;;;;;;5048999;28;20386;-36
2022/12/15 02:42:11;;;;;;;21.10;14.30;;;-1.90;99.90;;;;;;5049235;28;20399;-36
2022/12/15 02:44:45;;;;;;;20.57;14.20;;;-1.80;99.90;;;;;;5049043;28;20416;-33
2022/12/15 02:47:49;;;;;;;20.40;14.20;;;-2.00;99.90;;;;;;5049351;28;20802;-33
2022/12/15 02:51:04;;;;;;;20.67;14.27;;;-1.70;99.90;;;;;;5047769;28;20431;-37
2022/12/15 02:54:13;;;;;;;24.77;15.13;;;-1.70;99.90;;;;;;5045809;28;20432;-38
2022/12/15 02:57:05;;;;;;;23.37;13.53;;;-1.90;99.90;;;;;;5046063;28;20474;-32
2022/12/15 02:59:44;;;;;;;23.00;14.03;;;-2.00;99.90;;;;;;5048625;28;20401;-37
2022/12/15 03:02:12;;;;;;;22.77;14.63;;;-1.90;99.90;;;;;;5048606;28;20803;-38
2022/12/15 03:04:41;;;;;;;22.00;14.10;;;-2.00;99.90;;;;;;5048498;28;20421;-31
2022/12/15 03:07:09;;;;;;;24.00;15.60;;;-1.90;99.90;;;;;;5047220;28;20420;-32
2022/12/15 03:09:34;;;;;;;21.90;14.20;;;-1.80;99.90;;;;;;5048367;28;20488;-37
2022/12/15 03:12:00;;;;;;;21.30;14.77;;;-2.00;99.90;;;;;;5047048;28;20551;-33
2022/12/15 03:14:26;;;;;;;23.90;14.23;;;-1.70;99.90;;;;;;5048435;28;20687;-36
2022/12/15 03:16:53;;;;;;;23.00;13.80;;;-2.00;99.90;;;;;;5048100;28;20554;-36
2022/12/15 03:19:19;;;;;;;22.43;14.03;;;-1.90;99.90;;;;;;5048321;28;20649;-36
2022/12/15 03:21:44;;;;;;;18.97;14.10;;;-1.80;99.90;;;;;;5048353;28;20423;-37
2022/12/15 03:24:10;;;;;;;23.10;15.37;;;-1.90;99.90;;;;;;5047870;28;20977;-36
2022/12/15 03:26:36;;;;;;;23.17;16.00;;;-1.70;99.90;;;;;;5047087;28;20205;-38
2022/12/15 03:29:01;;;;;;;21.63;14.40;;;-1.90;99.90;;;;;;5046350;28;20267;-35
2022/12/15 03:31:27;;;;;;;23.90;15.33;;;-1.80;99.90;;;;;;5048180;28;20667;-36
2022/12/15 03:33:54;;;;;;;23.40;14.57;;;-1.80;99.90;;;;;;5047882;28;20401;-32
2022/12/15 03:36:21;;;;;;;28.47;16.47;;;-1.70;99.90;;;;;;5048239;28;20175;-35
2022/12/15 03:38:47;;;;;;;23.90;16.70;;;-1.60;99.90;;;;;;5047478;28;20505;-33
2022/12/15 03:41:13;;;;;;;26.27;16.70;;;-1.60;99.90;;;;;;5048057;28;20387;-36
2022/12/15 03:43:38;;;;;;;23.20;16.60;;;-1.70;99.90;;;;;;5047525;28;20432;-35
2022/12/15 03:46:04;;;;;;;27.50;15.10;;;-1.90;99.90;;;;;;5047761;28;20194;-32
2022/12/15 03:48:30;;;;;;;21.73;15.70;;;-1.90;99.90;;;;;;5047374;28;20239;-33
2022/12/15 03:50:55;;;;;;;20.37;14.73;;;-1.80;99.90;;;;;;5047798;28;20205;-35
2022/12/15 03:53:21;;;;;;;25.77;16.03;;;-1.90;99.90;;;;;;5047559;28;20189;-36
2022/12/15 03:55:47;;;;;;;21.53;14.43;;;-1.90;99.90;;;;;;5046121;28;20347;-33
2022/12/15 03:58:12;;;;;;;28.13;15.80;;;-1.80;99.90;;;;;;5046335;28;20181;-35
2022/12/15 04:00:38;;;;;;;22.87;14.80;;;-1.90;99.90;;;;;;5047697;28;20181;-34
2022/12/15 04:03:04;;;;;;;25.00;14.27;;;-1.90;99.90;;;;;;5047546;28;20189;-36
2022/12/15 04:05:32;;;;;;;22.40;14.83;;;-1.80;99.90;;;;;;5047697;28;20209;-35
2022/12/15 04:07:59;;;;;;;19.10;13.40;;;-1.70;99.90;;;;;;5044754;28;20190;-31
2022/12/15 04:10:27;;;;;;;21.40;15.10;;;-1.60;99.90;;;;;;5047377;28;20391;-32
2022/12/15 04:13:07;;;;;;;21.17;15.40;;;-1.70;99.90;;;;;;5047358;28;20391;-34
2022/12/15 04:15:35;;;;;;;23.40;14.77;;;-1.70;99.90;;;;;;5047410;28;20422;-31
2022/12/15 04:18:03;;;;;;;22.07;15.53;;;-1.80;99.90;;;;;;5047712;28;20852;-38
2022/12/15 04:20:29;;;;;;;21.90;13.83;;;-1.70;99.90;;;;;;5047188;28;20877;-35
2022/12/15 04:22:55;;;;;;;18.57;13.03;;;-1.70;99.90;;;;;;5045726;28;20408;-37
2022/12/15 05:31:51;;;;;;;18.83;12.77;;;-1.60;99.90;;;;;;5050147;28;20441;-37
2022/12/15 05:34:19;;;;;;;19.23;13.60;;;-1.40;99.90;;;;;;5050263;28;20417;-37
2022/12/15 05:36:44;;;;;;;15.47;12.53;;;-1.60;99.90;;;;;;5050583;28;20424;-33
2022/12/15 05:39:10;;;;;;;21.17;14.10;;;-1.80;99.90;;;;;;5050371;28;20391;-36
2022/12/15 05:41:36;;;;;;;22.10;15.17;;;-1.50;99.90;;;;;;5050317;28;20556;-36
2022/12/15 05:44:01;;;;;;;22.37;13.90;;;-1.60;99.90;;;;;;5050168;28;20182;-38
2022/12/15 05:46:27;;;;;;;20.87;13.33;;;-1.50;99.90;;;;;;5048373;28;20288;-37
2022/12/15 05:48:53;;;;;;;20.03;14.27;;;-1.50;99.90;;;;;;5049450;28;20684;-37
2022/12/15 05:51:18;;;;;;;21.73;15.20;;;-1.50;99.90;;;;;;5044106;28;20302;-37
2022/12/15 05:53:44;;;;;;;18.70;13.70;;;-1.60;99.90;;;;;;5040174;28;20182;-36
2022/12/15 05:56:12;;;;;;;22.27;13.73;;;-1.70;99.90;;;;;;5048774;28;20267;-37
2022/12/15 05:58:39;;;;;;;23.37;15.17;;;-1.70;99.90;;;;;;5047590;28;20186;-38
2022/12/15 06:01:13;;;;;;;18.00;13.80;;;-1.50;99.90;;;;;;5047044;28;20432;-36
2022/12/15 06:03:39;;;;;;;25.80;15.47;;;-1.70;99.90;;;;;;5049328;28;20428;-36
2022/12/15 06:06:06;;;;;;;21.97;13.90;;;-1.60;99.90;;;;;;5049882;28;20418;-38
2022/12/15 06:08:33;;;;;;;20.47;14.47;;;-1.60;99.90;;;;;;5046217;28;20454;-32
2022/12/15 06:10:59;;;;;;;23.67;15.90;;;-1.60;99.90;;;;;;5044212;28;20465;-36
2022/12/15 06:13:26;;;;;;;20.30;14.07;;;-1.50;99.90;;;;;;5045421;28;20844;-35
2022/12/15 06:15:58;;;;;;;19.30;14.00;;;-1.50;99.90;;;;;;5047847;28;20448;-32
2022/12/15 06:18:26;;;;;;;22.97;14.90;;;-1.50;99.90;;;;;;5044640;28;20569;-37
2022/12/15 06:21:01;;;;;;;20.13;14.70;;;-1.50;99.90;;;;;;5037536;28;20417;-37
2022/12/15 06:23:28;;;;;;;22.17;14.70;;;-1.40;99.90;;;;;;5043066;28;20394;-40
2022/12/15 06:25:55;;;;;;;23.97;15.70;;;-1.50;99.90;;;;;;5049974;28;20809;-37
2022/12/15 06:28:23;;;;;;;21.20;15.30;;;-1.50;99.90;;;;;;5049626;28;21012;-37
2022/12/15 06:30:54;;;;;;;20.17;14.50;;;-1.60;99.90;;;;;;5049973;28;20559;-37
2022/12/15 06:33:21;;;;;;;20.30;14.57;;;-1.70;99.90;;;;;;5049096;28;20424;-36
2022/12/15 06:35:47;;;;;;;19.90;14.57;;;-1.60;99.90;;;;;;5047999;28;20423;-37
2022/12/15 06:38:14;;;;;;;22.00;15.37;;;-1.50;99.90;;;;;;5049433;28;20775;-40
2022/12/15 06:40:40;;;;;;;20.70;14.10;;;-1.70;99.90;;;;;;5047539;28;20387;-35
2022/12/15 06:43:06;;;;;;;24.93;17.33;;;-1.50;99.90;;;;;;5048829;28;20424;-32
2022/12/15 06:45:33;;;;;;;22.57;15.10;;;-1.70;99.90;;;;;;5041272;28;20408;-36
2022/12/15 06:47:59;;;;;;;25.80;16.27;;;-1.70;99.90;;;;;;5047722;28;20416;-35
2022/12/15 06:50:24;;;;;;;23.03;14.60;;;-1.80;99.90;;;;;;5048674;28;20413;-38
2022/12/15 06:52:50;;;;;;;23.50;14.67;;;-1.60;99.90;;;;;;5048846;28;20537;-35
2022/12/15 06:55:16;;;;;;;21.97;14.80;;;-1.50;99.90;;;;;;5049214;28;20600;-37
2022/12/15 06:57:41;;;;;;;22.23;14.80;;;-1.70;99.90;;;;;;5048009;28;20196;-39
2022/12/15 07:00:08;;;;;;;25.70;14.23;;;-1.50;99.90;;;;;;5048992;28;20231;-39
2022/12/15 07:02:33;;;;;;;26.33;16.13;;;-1.60;99.90;;;;;;5049297;28;20177;-38
2022/12/15 07:04:59;;;;;;;19.33;14.50;;;-1.80;99.90;;;;;;5048759;28;20464;-38
2022/12/15 07:07:26;;;;;;;21.90;15.33;;;-1.60;99.90;;;;;;5048038;28;20186;-38
2022/12/15 07:09:52;;;;;;;21.97;16.47;;;-1.70;99.90;;;;;;5045022;28;20436;-38
2022/12/15 07:12:18;;;;;;;21.83;15.40;;;-1.70;99.90;;;;;;5044379;28;20841;-37
2022/12/15 07:14:43;;;;;;;23.03;14.93;;;-1.50;99.90;;;;;;5048167;28;20714;-33
2022/12/15 07:17:12;;;;;;;24.93;16.53;;;-1.60;99.90;;;;;;5048344;28;20457;-38
2022/12/15 07:19:37;;;;;;;27.03;16.90;;;-1.70;99.90;;;;;;5048131;28;20205;-35
2022/12/15 07:22:03;;;;;;;22.90;15.27;;;-1.40;99.90;;;;;;5050049;28;20427;-37
2022/12/15 07:24:29;;;;;;;23.67;14.90;;;-1.70;99.90;;;;;;5047252;28;20684;-36
2022/12/15 07:26:54;;;;;;;24.00;16.60;;;-1.70;99.90;;;;;;5045746;28;20197;-35
2022/12/15 07:29:20;;;;;;;20.70;15.37;;;-1.50;99.90;;;;;;5041523;28;20196;-37
2022/12/15 07:31:45;;;;;;;24.20;16.53;;;-1.50;99.90;;;;;;5033793;28;20206;-33
2022/12/15 07:34:11;;;;;;;21.83;15.40;;;-1.40;99.90;;;;;;5039064;28;20280;-38
2022/12/15 07:36:37;;;;;;;21.97;15.27;;;-1.60;99.90;;;;;;5045610;28;20213;-32
2022/12/15 07:39:04;;;;;;;24.00;16.47;;;-1.60;99.90;;;;;;5045084;28;20189;-38
2022/12/15 07:41:30;;;;;;;20.73;16.30;;;-1.50;99.90;;;;;;5048124;28;20844;-33
2022/12/15 07:43:57;;;;;;;25.17;17.20;;;-1.50;99.90;;;;;;5048144;28;20840;-36
2022/12/15 07:46:24;;;;;;;25.43;17.37;;;-1.50;99.90;;;;;;5046439;28;20424;-30
2022/12/15 07:48:50;;;;;;;20.70;15.10;;;-1.50;99.90;;;;;;5028924;28;20487;-35
2022/12/15 07:51:16;;;;;;;22.43;15.63;;;-1.50;99.90;;;;;;5034215;28;20460;-36
2022/12/15 07:53:42;;;;;;;25.83;18.10;;;-1.60;99.90;;;;;;5027921;28;20774;-38
2022/12/15 07:56:08;;;;;;;21.20;16.27;;;-1.50;99.90;;;;;;5034340;28;20440;-37
2022/12/15 07:58:34;;;;;;;22.43;16.00;;;-1.40;99.90;;;;;;5033693;28;20261;-35
2022/12/15 08:01:03;;;;;;;26.07;15.80;;;-1.50;99.90;;;;;;5033000;28;20975;-34
2022/12/15 08:03:29;;;;;;;24.80;17.13;;;-1.50;99.90;;;;;;5047372;28;20828;-32
2022/12/15 08:05:55;;;;;;;24.77;16.90;;;-1.60;99.90;;;;;;5044129;28;20419;-38
2022/12/15 08:08:21;;;;;;;23.73;16.80;;;-1.50;99.90;;;;;;5046186;28;20937;-37
2022/12/15 08:10:47;;;;;;;20.10;16.00;;;-1.60;99.90;;;;;;5047609;28;20916;-38
2022/12/15 08:13:13;;;;;;;23.90;16.40;;;-1.50;99.90;;;;;;5045793;28;20496;-36
2022/12/15 08:15:39;;;;;;;26.73;17.13;;;-1.40;99.90;;;;;;5047760;28;20448;-37
2022/12/15 08:18:05;;;;;;;23.33;16.60;;;-1.50;99.90;;;;;;5047546;28;20459;-38
2022/12/15 08:20:31;;;;;;;24.27;15.70;;;-1.30;99.90;;;;;;5046152;28;20476;-35
2022/12/15 08:22:58;;;;;;;19.70;16.43;;;-1.30;99.90;;;;;;5046981;28;20846;-32
2022/12/15 08:25:27;;;;;;;20.10;15.73;;;-1.40;99.90;;;;;;5047597;28;20994;-38
2022/12/15 08:27:52;;;;;;;22.27;16.87;;;-1.40;99.90;;;;;;5031941;28;20399;-38
2022/12/15 08:30:18;;;;;;;23.00;15.87;;;-1.20;99.90;;;;;;5047200;28;20477;-37
2022/12/15 08:32:46;;;;;;;22.17;16.73;;;-1.10;99.90;;;;;;5047034;28;20529;-37
2022/12/15 08:35:12;;;;;;;24.20;16.17;;;-1.00;99.90;;;;;;5047093;28;20554;-39
2022/12/15 08:37:38;;;;;;;22.07;16.10;;;-0.70;99.90;;;;;;5047819;28;20411;-34
2022/12/15 08:40:05;;;;;;;28.50;17.70;;;-0.70;99.90;;;;;;5047201;28;20412;-33
2022/12/15 08:42:35;;;;;;;27.77;17.53;;;-0.50;99.90;;;;;;5047201;28;20194;-36
2022/12/15 08:45:01;;;;;;;24.27;16.33;;;-0.30;99.90;;;;;;5045849;28;20676;-36
2022/12/15 08:47:27;;;;;;;21.97;15.97;;;-0.40;99.90;;;;;;5027786;28;20796;-36
2022/12/15 08:49:54;;;;;;;24.83;16.07;;;0.00;99.90;;;;;;5045883;28;20425;-36
2022/12/15 08:52:20;;;;;;;27.73;18.63;;;0.00;99.90;;;;;;5043905;28;20220;-34
2022/12/15 08:54:46;;;;;;;25.20;16.80;;;0.10;99.90;;;;;;5045625;28;20910;-39
2022/12/15 08:57:12;;;;;;;21.27;15.47;;;0.30;99.90;;;;;;5045969;28;20481;-38
2022/12/15 08:59:37;;;;;;;20.00;16.23;;;0.70;99.90;;;;;;5045613;28;20729;-36
2022/12/15 09:02:03;;;;;;;22.83;17.23;;;0.70;99.90;;;;;;5045956;28;20240;-36
2022/12/15 09:04:29;;;;;;;22.70;16.20;;;0.80;99.90;;;;;;5046033;28;20240;-34
2022/12/15 09:06:54;;;;;;;25.40;16.97;;;1.10;99.90;;;;;;5046287;28;20186;-33
2022/12/15 09:09:20;;;;;;;25.80;17.40;;;0.90;99.90;;;;;;5046980;28;20247;-34
2022/12/15 09:11:46;;;;;;;20.57;15.77;;;1.20;99.90;;;;;;5045834;28;20233;-35
2022/12/15 09:14:12;;;;;;;23.03;15.87;;;1.30;99.90;;;;;;5047375;28;20268;-36
2022/12/15 09:16:37;;;;;;;22.53;15.40;;;1.40;99.90;;;;;;5047391;28;20495;-37
2022/12/15 09:19:03;;;;;;;21.60;16.60;;;1.60;99.90;;;;;;5047241;28;20295;-37
2022/12/15 09:21:29;;;;;;;25.20;16.73;;;1.80;99.90;;;;;;5048032;28;20185;-33
2022/12/15 09:24:00;;;;;;;21.37;16.37;;;1.80;99.90;;;;;;5051123;28;20853;-32
2022/12/15 09:26:28;;;;;;;22.50;17.00;;;2.20;99.90;;;;;;5050876;28;20513;-38
2022/12/15 09:28:55;;;;;;;22.10;15.80;;;2.20;99.90;;;;;;5050673;28;20792;-38
2022/12/15 09:31:24;;;;;;;21.83;16.90;;;2.50;99.90;;;;;;5050710;28;20460;-36
2022/12/15 09:33:51;;;;;;;25.03;17.60;;;2.40;99.90;;;;;;5050533;28;20719;-35
2022/12/15 09:36:18;;;;;;;23.13;17.10;;;2.60;99.90;;;;;;5050690;28;20435;-32
2022/12/15 09:38:44;;;;;;;23.33;16.57;;;2.70;99.90;;;;;;5050697;28;20482;-38
2022/12/15 09:41:12;;;;;;;22.00;16.67;;;2.90;99.90;;;;;;5050587;28;20417;-34
2022/12/15 09:44:00;;;;;;;23.23;17.43;;;3.00;99.90;;;;;;5050449;28;20454;-32
2022/12/15 09:46:54;;;;;;;24.87;17.00;;;3.20;99.90;;;;;;5048732;28;20695;-36
2022/12/15 09:49:29;;;;;;;22.27;16.17;;;3.30;99.90;;;;;;5050376;28;20446;-33
2022/12/15 09:52:03;;;;;;;23.87;16.77;;;3.60;99.90;;;;;;5050337;28;20539;-37
2022/12/15 09:54:33;;;;;;;24.40;16.60;;;3.70;99.90;;;;;;5050407;28;20504;-33
2022/12/15 09:57:06;;;;;;;24.50;17.20;;;3.90;99.90;;;;;;5050166;28;20420;-35
2022/12/15 09:59:42;;;;;;;21.87;17.37;;;4.20;99.90;;;;;;5050162;28;20449;-31
2022/12/15 10:02:44;;;;;;;22.60;17.13;;;4.40;99.90;;;;;;5050235;28;20432;-35
2022/12/15 10:05:10;;;;;;;21.67;16.43;;;4.50;99.90;;;;;;5048722;28;20435;-36
2022/12/15 10:07:45;;;;;;;22.53;18.03;;;4.70;99.90;;;;;;5049530;28;20779;-36
2022/12/15 10:10:22;;;;;;;24.60;17.97;;;5.00;99.90;;;;;;5049943;28;20185;-35
2022/12/15 10:12:50;;;;;;;21.33;17.60;;;5.40;99.90;;;;;;5049682;28;20850;-38
2022/12/15 10:15:25;;;;;;;24.40;16.80;;;5.70;99.90;;;;;;5050243;28;20408;-33
2022/12/15 10:18:22;;;;;;;24.27;18.03;;;5.80;99.00;;;;;;5050335;28;20409;-38
2022/12/15 10:20:50;;;;;;;22.20;18.03;;;6.00;98.60;;;;;;5050294;28;20416;-35
2022/12/15 10:23:17;;;;;;;26.73;19.70;;;6.30;97.80;;;;;;5049709;28;20412;-38
2022/12/15 10:25:49;;;;;;;24.10;18.77;;;6.10;96.70;;;;;;5048760;28;20408;-35
2022/12/15 10:28:14;;;;;;;25.77;20.13;;;6.00;96.70;;;;;;5049520;28;20428;-36
2022/12/15 10:30:59;;;;;;;23.93;18.60;;;5.70;96.80;;;;;;5049945;28;20933;-38
2022/12/15 10:33:35;;;;;;;21.70;17.50;;;5.20;97.20;;;;;;5049660;28;20174;-36
2022/12/15 10:36:06;;;;;;;21.20;16.50;;;5.00;98.10;;;;;;5050440;28;20416;-35
2022/12/15 10:38:46;;;;;;;21.87;17.93;;;5.00;98.50;;;;;;5049090;28;20447;-31
2022/12/15 10:41:24;;;;;;;27.53;19.90;;;5.10;98.60;;;;;;5049897;28;20503;-36
2022/12/15 10:43:51;;;;;;;22.60;17.63;;;5.30;98.30;;;;;;5049315;28;20424;-35
2022/12/15 10:46:20;;;;;;;25.30;19.87;;;5.40;98.00;;;;;;5049612;28;20782;-37
2022/12/15 10:48:59;;;;;;;22.30;17.07;;;5.20;97.40;;;;;;5049202;28;20723;-37
2022/12/15 10:51:35;;;;;;;21.43;18.00;;;5.40;98.20;;;;;;5049523;28;20469;-36
2022/12/15 10:54:08;;;;;;;22.57;17.80;;;5.50;97.90;;;;;;5049609;28;20770;-35
2022/12/15 10:56:47;;;;;;;22.50;18.27;;;5.50;97.10;;;;;;5049643;28;20495;-33
2022/12/15 10:59:21;;;;;;;25.23;18.50;;;5.40;96.90;;;;;;5048914;28;20416;-37
2022/12/15 11:01:47;;;;;;;20.30;16.73;;;5.20;97.40;;;;;;5049289;28;20455;-38
2022/12/15 11:04:27;;;;;;;24.70;17.47;;;5.00;97.50;;;;;;5048791;28;20443;-35
2022/12/15 11:06:57;;;;;;;22.40;17.97;;;4.80;97.90;;;;;;5048523;28;20189;-38
2022/12/15 11:09:36;;;;;;;23.07;16.60;;;4.50;98.60;;;;;;5048771;28;20511;-37
2022/12/15 11:15:23;;;;;;;23.47;16.67;;;4.70;99.80;;;;;;5049108;28;20439;-36
2022/12/15 11:18:19;;;;;;;25.73;17.40;;;5.20;99.30;;;;;;5048894;28;20420;-35
2022/12/15 11:21:06;;;;;;;25.10;17.70;;;5.40;98.80;;;;;;5048014;28;20421;-37
2022/12/15 11:23:49;;;;;;;23.60;16.40;;;5.30;98.50;;;;;;5048593;28;20420;-35
2022/12/15 11:26:30;;;;;;;23.80;17.90;;;5.30;98.20;;;;;;5048998;28;20432;-35
2022/12/15 11:29:10;;;;;;;24.83;18.57;;;5.10;98.70;;;;;;5046986;28;20420;-36
2022/12/15 11:31:42;;;;;;;22.97;16.20;;;4.60;98.80;;;;;;5048755;28;20447;-33
2022/12/15 11:34:21;;;;;;;22.33;17.60;;;4.60;99.30;;;;;;5047073;28;20595;-36
2022/12/15 11:37:27;;;;;;;22.23;17.33;;;4.40;99.40;;;;;;5047016;28;20415;-36
2022/12/15 11:40:17;;;;;;;23.10;17.47;;;4.50;99.80;;;;;;5048447;28;20930;-37
2022/12/15 11:43:20;;;;;;;19.63;16.30;;;4.80;99.90;;;;;;5048099;28;20416;-35
2022/12/15 11:46:16;;;;;;;23.20;18.53;;;6.10;99.90;;;;;;5048775;28;20498;-33
2022/12/15 11:49:10;;;;;;;22.77;17.63;;;9.10;97.90;;;;;;5048121;28;20408;-37
2022/12/15 11:51:54;;;;;;;22.13;18.00;;;10.60;93.90;;;;;;5048260;28;20467;-35
2022/12/15 11:54:33;;;;;;;20.10;16.53;;;11.20;92.20;;;;;;5048236;28;20412;-34
2022/12/15 11:57:28;;;;;;;19.00;17.00;;;14.20;85.60;;;;;;5048568;28;20499;-39
2022/12/15 12:00:18;;;;;;;20.80;17.60;;;16.60;73.30;;;;;;5047831;28;20456;-36
2022/12/15 12:02:49;;;;;;;19.13;16.83;;;18.90;60.30;;;;;;5048188;28;21054;-37
2022/12/15 12:05:47;;;;;;;21.90;18.47;;;20.40;54.40;;;;;;5048290;28;20954;-40
2022/12/15 12:08:28;;;;;;;23.43;19.67;;;21.40;48.70;;;;;;5047674;28;20415;-38
2022/12/15 12:11:17;;;;;;;21.93;19.50;;;22.20;45.20;;;;;;5048028;28;20467;-36
2022/12/15 12:13:49;;;;;;;20.50;18.50;;;19.70;42.10;;;;;;5047855;28;20439;-38
2022/12/15 12:16:33;;;;;;;20.50;18.40;;;17.00;43.60;;;;;;5047829;28;20534;-35
2022/12/15 12:19:08;;;;;;;21.07;18.77;;;14.60;46.00;;;;;;5047821;28;20507;-37
2022/12/15 12:21:38;;;;;;;25.50;19.37;;;12.60;49.00;;;;;;5046799;28;20424;-36
2022/12/15 12:24:20;;;;;;;21.70;17.90;;;11.00;53.20;;;;;;5048023;28;20408;-37
2022/12/15 12:26:56;;;;;;;24.50;19.40;;;9.80;58.70;;;;;;5047644;28;20420;-36
2022/12/15 12:29:40;;;;;;;25.87;19.70;;;8.80;63.60;;;;;;5048110;28;20489;-36
2022/12/15 12:32:16;;;;;;;24.50;18.77;;;8.10;69.70;;;;;;5047881;28;20899;-36
2022/12/15 12:35:11;;;;;;;24.90;18.40;;;7.50;74.90;;;;;;5046610;28;20412;-36
2022/12/15 12:38:00;;;;;;;25.53;18.80;;;7.00;80.20;;;;;;5046201;28;20495;-33
2022/12/15 12:40:50;;;;;;;24.73;18.53;;;6.70;86.00;;;;;;5046485;28;20483;-39
2022/12/15 12:43:37;;;;;;;24.37;17.47;;;6.30;90.20;;;;;;5047668;28;20416;-35
2022/12/15 12:46:07;;;;;;;23.83;17.70;;;5.70;92.50;;;;;;5047866;28;20400;-37
2022/12/15 12:49:02;;;;;;;27.43;18.80;;;5.40;93.70;;;;;;5047645;28;20774;-38
2022/12/15 12:51:31;;;;;;;23.60;17.47;;;5.20;94.60;;;;;;5046599;28;20462;-36
2022/12/15 12:53:58;;;;;;;22.50;16.73;;;5.10;95.50;;;;;;5047354;28;20811;-36
2022/12/15 12:56:32;;;;;;;26.17;17.17;;;4.90;96.60;;;;;;5050060;28;20423;-33
2022/12/15 12:58:58;;;;;;;28.37;18.17;;;4.70;97.40;;;;;;5051337;28;20408;-38
2022/12/15 13:01:32;;;;;;;22.33;17.90;;;4.50;98.10;;;;;;5051712;28;20434;-35
2022/12/15 13:04:32;;;;;;;23.47;17.40;;;4.40;98.60;;;;;;5051237;28;20177;-36
2022/12/15 13:07:23;;;;;;;28.50;18.90;;;4.50;99.20;;;;;;5049833;28;20523;-38
2022/12/15 13:10:06;;;;;;;25.20;17.33;;;4.00;99.50;;;;;;5049745;28;20419;-33
2022/12/15 13:12:47;;;;;;;23.03;18.23;;;4.30;99.90;;;;;;5050811;28;20451;-35
2022/12/15 13:15:36;;;;;;;26.80;17.97;;;3.90;99.90;;;;;;5051516;28;20408;-36
2022/12/15 13:18:14;;;;;;;26.03;16.10;;;4.00;99.90;;;;;;5051331;28;20776;-36
2022/12/15 13:20:41;;;;;;;24.53;16.90;;;3.70;99.90;;;;;;5049585;28;20411;-38
2022/12/15 13:23:18;;;;;;;23.00;16.17;;;3.80;99.90;;;;;;5050611;28;20424;-39
2022/12/15 13:25:46;;;;;;;22.80;15.83;;;3.60;99.90;;;;;;5051319;28;20752;-36
2022/12/15 13:28:22;;;;;;;23.73;16.00;;;3.60;99.90;;;;;;5051079;28;20513;-35
2022/12/15 13:31:10;;;;;;;20.07;15.03;;;3.70;99.90;;;;;;5051043;28;20416;-35
2022/12/15 13:34:03;;;;;;;22.90;16.20;;;3.60;99.90;;;;;;5050300;28;20404;-33
2022/12/15 13:36:42;;;;;;;21.23;13.53;;;3.50;99.90;;;;;;5050634;28;20441;-33
2022/12/15 13:39:13;;;;;;;21.43;15.37;;;3.60;99.90;;;;;;5050538;28;20454;-33
2022/12/15 13:41:45;;;;;;;20.83;14.73;;;3.60;99.90;;;;;;5050737;28;20416;-37
2022/12/15 13:44:15;;;;;;;24.40;15.93;;;3.40;99.90;;;;;;5050637;28;20832;-34
2022/12/15 13:46:45;;;;;;;21.60;15.23;;;3.40;99.90;;;;;;5050725;28;20419;-38
2022/12/15 13:49:21;;;;;;;23.77;16.40;;;3.50;99.90;;;;;;5050394;28;20435;-37
2022/12/15 13:51:47;;;;;;;21.10;15.60;;;3.10;99.90;;;;;;5050614;28;20458;-35
2022/12/15 13:54:22;;;;;;;25.57;16.20;;;3.30;99.90;;;;;;5048832;28;20416;-37
2022/12/15 13:56:58;;;;;;;23.50;16.80;;;3.20;99.90;;;;;;5050508;28;20185;-33
2022/12/15 13:59:24;;;;;;;23.20;15.73;;;3.00;99.90;;;;;;5050186;28;20432;-36
2022/12/15 14:01:51;;;;;;;21.53;15.60;;;3.40;99.90;;;;;;5050344;28;20424;-39
2022/12/15 14:04:18;;;;;;;24.77;16.13;;;3.20;99.90;;;;;;5050160;28;20343;-35
2022/12/15 14:06:54;;;;;;;24.77;15.37;;;2.90;99.90;;;;;;5049556;28;20419;-37
2022/12/15 14:09:33;;;;;;;25.40;16.60;;;3.10;99.90;;;;;;5049911;28;20480;-37
2022/12/15 14:12:01;;;;;;;23.50;16.37;;;3.10;99.90;;;;;;5049977;28;20459;-36
2022/12/15 14:14:30;;;;;;;23.70;16.07;;;3.10;99.90;;;;;;5049885;28;20789;-36
2022/12/15 14:17:02;;;;;;;22.27;15.50;;;2.90;99.90;;;;;;5050223;28;20978;-35
2022/12/15 14:19:49;;;;;;;26.13;16.27;;;2.90;99.90;;;;;;5049776;28;21178;-36
2022/12/15 14:22:23;;;;;;;23.83;16.40;;;2.90;99.90;;;;;;5050054;28;20925;-34
2022/12/15 14:24:51;;;;;;;21.83;16.07;;;3.00;99.90;;;;;;5050093;28;20473;-38
2022/12/15 14:27:29;;;;;;;25.57;16.33;;;2.80;99.90;;;;;;5049804;28;20866;-38
2022/12/15 14:30:12;;;;;;;26.50;16.37;;;2.90;99.90;;;;;;5029571;28;20432;-35
2022/12/15 14:32:39;;;;;;;23.60;15.57;;;2.70;99.90;;;;;;5029367;28;20587;-39
2022/12/15 14:35:08;;;;;;;24.20;16.57;;;2.70;99.90;;;;;;5028845;28;20425;-32
2022/12/15 14:37:33;;;;;;;25.87;16.93;;;2.70;99.90;;;;;;5029703;28;20421;-33
2022/12/15 14:39:59;;;;;;;24.10;16.90;;;2.80;99.90;;;;;;5029484;28;20777;-33
2022/12/15 14:42:27;;;;;;;29.33;17.50;;;2.90;99.90;;;;;;5029395;28;20277;-35
2022/12/15 14:44:53;;;;;;;26.20;17.27;;;2.60;99.90;;;;;;5029661;28;20197;-35
2022/12/15 14:47:32;;;;;;;28.63;19.73;;;2.70;99.90;;;;;;5029948;28;20421;-35
2022/12/15 14:50:00;;;;;;;26.17;18.00;;;2.50;99.90;;;;;;5029190;28;20467;-33
2022/12/15 14:52:41;;;;;;;27.17;17.87;;;2.50;99.90;;;;;;5029658;28;20548;-35
2022/12/15 14:55:34;;;;;;;25.97;17.73;;;2.50;99.90;;;;;;5029487;28;20421;-37
2022/12/15 14:58:00;;;;;;;23.63;16.30;;;2.50;99.90;;;;;;5029864;28;20444;-38
2022/12/15 15:00:26;;;;;;;25.17;18.37;;;2.30;99.90;;;;;;5029156;28;20460;-37
2022/12/15 15:03:21;;;;;;;27.37;17.97;;;2.40;99.90;;;;;;5029039;28;20954;-36
2022/12/15 15:06:03;;;;;;;27.53;17.53;;;2.40;99.90;;;;;;5029429;28;20201;-37
2022/12/15 15:08:42;;;;;;;27.70;16.87;;;2.40;99.90;;;;;;5027393;28;20516;-34
2022/12/15 15:11:36;;;;;;;29.60;17.93;;;2.50;99.90;;;;;;5029411;28;20547;-38
2022/12/15 15:14:29;;;;;;;27.20;16.40;;;2.20;99.90;;;;;;5027683;28;20476;-33
2022/12/15 15:17:07;;;;;;;27.00;18.27;;;2.20;99.90;;;;;;5026455;28;20518;-35
2022/12/15 15:19:36;;;;;;;24.97;17.43;;;2.20;99.90;;;;;;5028047;28;20924;-36